sensor_id;sensor_type;location;lat;lon;timestamp;pressure;altitude;pressure_sealevel;temperature;humidity
42067;BME280;27734;47.028;28.820;2023-03-26T00:00:24;99376.11;;;11.28;66.75
42067;BME280;27734;47.028;28.820;2023-03-26T00:03:16;99381.31;;;11.25;66.79
42067;BME280;27734;47.028;28.820;2023-03-26T00:05:49;99384.77;;;11.21;66.71
42067;BME280;27734;47.028;28.820;2023-03-26T00:08:32;99383.04;;;11.23;66.51
42067;BME280;27734;47.028;28.820;2023-03-26T00:11:05;99384.80;;;11.22;66.68
42067;BME280;27734;47.028;28.820;2023-03-26T00:13:36;99380.39;;;11.21;67.31
42067;BME280;27734;47.028;28.820;2023-03-26T00:16:08;99387.47;;;11.25;67.08
42067;BME280;27734;47.028;28.820;2023-03-26T00:18:40;99388.34;;;11.26;67.08
42067;BME280;27734;47.028;28.820;2023-03-26T00:21:15;99386.54;;;11.23;67.20
42067;BME280;27734;47.028;28.820;2023-03-26T00:23:47;99375.23;;;11.27;67.44
42067;BME280;27734;47.028;28.820;2023-03-26T00:26:18;99384.89;;;11.28;67.04
42067;BME280;27734;47.028;28.820;2023-03-26T00:28:50;99384.77;;;11.21;67.27
42067;BME280;27734;47.028;28.820;2023-03-26T00:31:21;99388.27;;;11.21;67.42
42067;BME280;27734;47.028;28.820;2023-03-26T00:33:53;99394.34;;;11.19;67.43
42067;BME280;27734;47.028;28.820;2023-03-26T00:36:25;99394.38;;;11.20;67.55
42067;BME280;27734;47.028;28.820;2023-03-26T00:38:57;99395.32;;;11.24;67.59
42067;BME280;27734;47.028;28.820;2023-03-26T00:41:28;99389.22;;;11.26;67.56
42067;BME280;27734;47.028;28.820;2023-03-26T00:44:00;99383.16;;;11.30;67.55
42067;BME280;27734;47.028;28.820;2023-03-26T00:46:32;99385.85;;;11.35;67.67
42067;BME280;27734;47.028;28.820;2023-03-26T00:49:03;99389.38;;;11.37;67.81
42067;BME280;27734;47.028;28.820;2023-03-26T00:51:42;99397.30;;;11.40;67.73
42067;BME280;27734;47.028;28.820;2023-03-26T00:54:13;99391.22;;;11.43;67.88
42067;BME280;27734;47.028;28.820;2023-03-26T00:56:45;99401.75;;;11.44;67.99
42067;BME280;27734;47.028;28.820;2023-03-26T00:59:16;99393.02;;;11.45;67.93
42067;BME280;27734;47.028;28.820;2023-03-26T01:01:47;99397.34;;;11.43;68.12
42067;BME280;27734;47.028;28.820;2023-03-26T01:04:26;99386.84;;;11.43;68.04
42067;BME280;27734;47.028;28.820;2023-03-26T01:07:02;99387.74;;;11.44;68.05
42067;BME280;27734;47.028;28.820;2023-03-26T01:09:38;99383.36;;;11.44;68.20
42067;BME280;27734;47.028;28.820;2023-03-26T01:12:15;99375.45;;;11.43;68.11
42067;BME280;27734;47.028;28.820;2023-03-26T01:14:50;99371.08;;;11.43;68.08
42067;BME280;27734;47.028;28.820;2023-03-26T01:17:22;99378.91;;;11.40;68.23
42067;BME280;27734;47.028;28.820;2023-03-26T01:19:57;99374.55;;;11.39;68.42
42067;BME280;27734;47.028;28.820;2023-03-26T01:22:43;99374.56;;;11.41;68.52
42067;BME280;27734;47.028;28.820;2023-03-26T01:25:16;99373.64;;;11.39;68.88
42067;BME280;27734;47.028;28.820;2023-03-26T01:27:49;99377.97;;;11.35;68.54
42067;BME280;27734;47.028;28.820;2023-03-26T01:30:26;99381.42;;;11.32;69.19
42067;BME280;27734;47.028;28.820;2023-03-26T01:33:05;99375.30;;;11.32;69.10
42067;BME280;27734;47.028;28.820;2023-03-26T01:35:46;99383.16;;;11.30;69.15
42067;BME280;27734;47.028;28.820;2023-03-26T01:38:26;99371.76;;;11.28;69.41
42067;BME280;27734;47.028;28.820;2023-03-26T01:41:07;99377.88;;;11.29;69.26
42067;BME280;27734;47.028;28.820;2023-03-26T01:43:46;99367.33;;;11.26;69.44
42067;BME280;27734;47.028;28.820;2023-03-26T01:46:38;99368.20;;;11.26;69.77
42067;BME280;27734;47.028;28.820;2023-03-26T01:49:10;99356.85;;;11.27;69.82
42067;BME280;27734;47.028;28.820;2023-03-26T01:51:43;99355.09;;;11.28;69.81
42067;BME280;27734;47.028;28.820;2023-03-26T01:54:17;99365.62;;;11.29;69.54
42067;BME280;27734;47.028;28.820;2023-03-26T01:57:00;99357.77;;;11.31;69.44
42067;BME280;27734;47.028;28.820;2023-03-26T01:59:50;99367.38;;;11.29;69.59
42067;BME280;27734;47.028;28.820;2023-03-26T02:02:28;99366.53;;;11.30;69.94
42067;BME280;27734;47.028;28.820;2023-03-26T02:05:07;99368.27;;;11.31;69.54
42067;BME280;27734;47.028;28.820;2023-03-26T02:07:46;99368.27;;;11.31;70.06
42067;BME280;27734;47.028;28.820;2023-03-26T02:10:24;99361.28;;;11.30;70.04
42067;BME280;27734;47.028;28.820;2023-03-26T02:12:57;99363.02;;;11.31;69.95
42067;BME280;27734;47.028;28.820;2023-03-26T02:15:29;99364.75;;;11.29;69.93
42067;BME280;27734;47.028;28.820;2023-03-26T02:18:00;99376.11;;;11.28;69.76
42067;BME280;27734;47.028;28.820;2023-03-26T02:20:33;99381.31;;;11.25;69.96
42067;BME280;27734;47.028;28.820;2023-03-26T02:23:04;99383.04;;;11.23;70.13
42067;BME280;27734;47.028;28.820;2023-03-26T02:25:35;99384.82;;;11.24;70.12
42067;BME280;27734;47.028;28.820;2023-03-26T02:28:09;99384.80;;;11.22;70.01
42067;BME280;27734;47.028;28.820;2023-03-26T02:30:40;99390.05;;;11.22;70.17
42067;BME280;27734;47.028;28.820;2023-03-26T02:33:12;99396.09;;;11.18;70.33
42067;BME280;27734;47.028;28.820;2023-03-26T02:35:46;99394.27;;;11.14;70.53
42067;BME280;27734;47.028;28.820;2023-03-26T02:38:17;99395.16;;;11.13;70.27
42067;BME280;27734;47.028;28.820;2023-03-26T02:40:49;99391.63;;;11.12;70.29
42067;BME280;27734;47.028;28.820;2023-03-26T02:43:21;99391.63;;;11.12;70.47
42067;BME280;27734;47.028;28.820;2023-03-26T02:45:53;99386.39;;;11.14;70.48
42067;BME280;27734;47.028;28.820;2023-03-26T02:48:50;99377.65;;;11.13;70.65
42067;BME280;27734;47.028;28.820;2023-03-26T02:51:27;99381.09;;;11.11;70.65
42067;BME280;27734;47.028;28.820;2023-03-26T02:54:16;99383.70;;;11.09;70.42
42067;BME280;27734;47.028;28.820;2023-03-26T02:57:16;99380.16;;;11.06;70.71
42067;BME280;27734;47.028;28.820;2023-03-26T03:00:08;99387.98;;;11.03;70.50
42067;BME280;27734;47.028;28.820;2023-03-26T03:02:41;99391.48;;;11.02;70.59
42067;BME280;27734;47.028;28.820;2023-03-26T03:05:39;99392.33;;;11.01;70.58
42067;BME280;27734;47.028;28.820;2023-03-26T03:08:15;99390.55;;;11.00;70.97
42067;BME280;27734;47.028;28.820;2023-03-26T03:11:13;99390.55;;;11.00;71.05
42067;BME280;27734;47.028;28.820;2023-03-26T03:13:51;99394.91;;;10.97;71.00
42067;BME280;27734;47.028;28.820;2023-03-26T03:16:27;99394.86;;;10.94;71.07
42067;BME280;27734;47.028;28.820;2023-03-26T03:19:00;99391.25;;;10.88;71.34
42067;BME280;27734;47.028;28.820;2023-03-26T03:21:42;99404.27;;;10.82;70.82
42067;BME280;27734;47.028;28.820;2023-03-26T03:24:13;99398.09;;;10.79;71.24
42067;BME280;27734;47.028;28.820;2023-03-26T03:26:48;99390.16;;;10.76;71.40
42067;BME280;27734;47.028;28.820;2023-03-26T03:29:46;99395.36;;;10.73;71.13
42067;BME280;27734;47.028;28.820;2023-03-26T03:32:38;99397.06;;;10.70;71.15
42067;BME280;27734;47.028;28.820;2023-03-26T03:35:10;99398.67;;;10.61;71.10
42067;BME280;27734;47.028;28.820;2023-03-26T03:37:42;99409.02;;;10.54;71.44
42067;BME280;27734;47.028;28.820;2023-03-26T03:40:14;99398.39;;;10.46;71.81
42067;BME280;27734;47.028;28.820;2023-03-26T03:42:46;99408.91;;;10.48;71.32
42067;BME280;27734;47.028;28.820;2023-03-26T03:45:21;99413.25;;;10.46;71.65
42067;BME280;27734;47.028;28.820;2023-03-26T03:47:54;99407.86;;;10.38;71.55
42067;BME280;27734;47.028;28.820;2023-03-26T03:50:32;99412.92;;;10.30;71.80
42067;BME280;27734;47.028;28.820;2023-03-26T03:53:22;99409.31;;;10.25;72.18
42067;BME280;27734;47.028;28.820;2023-03-26T03:55:55;99408.31;;;10.18;72.23
42067;BME280;27734;47.028;28.820;2023-03-26T03:58:30;99406.53;;;10.17;71.89
42067;BME280;27734;47.028;28.820;2023-03-26T04:01:08;99410.97;;;10.20;71.98
42067;BME280;27734;47.028;28.820;2023-03-26T04:03:49;99413.55;;;10.18;72.21
42067;BME280;27734;47.028;28.820;2023-03-26T04:06:21;99406.50;;;10.16;72.18
42067;BME280;27734;47.028;28.820;2023-03-26T04:08:54;99407.37;;;10.15;72.45
42067;BME280;27734;47.028;28.820;2023-03-26T04:11:26;99413.55;;;10.18;72.96
42067;BME280;27734;47.028;28.820;2023-03-26T04:14:20;99408.38;;;10.21;72.42
42067;BME280;27734;47.028;28.820;2023-03-26T04:17:03;99411.96;;;10.26;72.93
42067;BME280;27734;47.028;28.820;2023-03-26T04:19:36;99417.05;;;10.19;72.82
42067;BME280;27734;47.028;28.820;2023-03-26T04:22:09;99414.27;;;10.11;73.21
42067;BME280;27734;47.028;28.820;2023-03-26T04:25:01;99426.38;;;10.04;73.33
42067;BME280;27734;47.028;28.820;2023-03-26T04:27:57;99426.29;;;10.00;73.12
42067;BME280;27734;47.028;28.820;2023-03-26T04:30:43;99420.20;;;10.01;73.16
42067;BME280;27734;47.028;28.820;2023-03-26T04:33:28;99408.88;;;10.03;73.45
42067;BME280;27734;47.028;28.820;2023-03-26T04:36:00;99419.55;;;10.13;73.49
42067;BME280;27734;47.028;28.820;2023-03-26T04:38:36;99415.37;;;10.21;73.81
42067;BME280;27734;47.028;28.820;2023-03-26T04:41:12;99418.17;;;10.30;73.51
42067;BME280;27734;47.028;28.820;2023-03-26T04:44:02;99424.38;;;10.34;73.98
42067;BME280;27734;47.028;28.820;2023-03-26T04:46:41;99429.53;;;10.31;74.25
42067;BME280;27734;47.028;28.820;2023-03-26T04:49:24;99432.94;;;10.26;74.39
42067;BME280;27734;47.028;28.820;2023-03-26T04:51:55;99426.82;;;10.26;74.36
42067;BME280;27734;47.028;28.820;2023-03-26T04:54:46;99433.88;;;10.29;74.80
42067;BME280;27734;47.028;28.820;2023-03-26T04:57:22;99430.34;;;10.28;75.70
42067;BME280;27734;47.028;28.820;2023-03-26T05:00:07;99438.24;;;10.30;75.68
42067;BME280;27734;47.028;28.820;2023-03-26T05:02:43;99440.89;;;10.31;75.53
42067;BME280;27734;47.028;28.820;2023-03-26T05:05:18;99446.14;;;10.31;75.26
42067;BME280;27734;47.028;28.820;2023-03-26T05:07:50;99448.85;;;10.34;75.38
42067;BME280;27734;47.028;28.820;2023-03-26T05:10:22;99452.47;;;10.39;75.76
42067;BME280;27734;47.028;28.820;2023-03-26T05:12:58;99449.03;;;10.43;75.80
42067;BME280;27734;47.028;28.820;2023-03-26T05:15:33;99444.78;;;10.49;75.67
42067;BME280;27734;47.028;28.820;2023-03-26T05:18:11;99450.14;;;10.56;75.94
42067;BME280;27734;47.028;28.820;2023-03-26T05:20:45;99448.55;;;10.63;76.99
42067;BME280;27734;47.028;28.820;2023-03-26T05:23:16;99447.70;;;10.66;76.99
42067;BME280;27734;47.028;28.820;2023-03-26T05:25:53;99461.78;;;10.69;77.42
42067;BME280;27734;47.028;28.820;2023-03-26T05:28:25;99454.78;;;10.70;77.73
42067;BME280;27734;47.028;28.820;2023-03-26T05:31:20;99451.45;;;10.78;77.14
42067;BME280;27734;47.028;28.820;2023-03-26T05:33:53;99456.84;;;10.86;77.97
42067;BME280;27734;47.028;28.820;2023-03-26T05:36:25;99455.14;;;10.90;77.45
42067;BME280;27734;47.028;28.820;2023-03-26T05:39:10;99458.75;;;10.96;77.65
42067;BME280;27734;47.028;28.820;2023-03-26T05:41:59;99455.38;;;11.04;77.44
42067;BME280;27734;47.028;28.820;2023-03-26T05:44:38;99454.63;;;11.12;77.12
42067;BME280;27734;47.028;28.820;2023-03-26T05:47:17;99455.72;;;11.24;77.54
42067;BME280;27734;47.028;28.820;2023-03-26T05:49:49;99461.14;;;11.35;77.36
42067;BME280;27734;47.028;28.820;2023-03-26T05:52:20;99452.45;;;11.40;77.94
42067;BME280;27734;47.028;28.820;2023-03-26T05:55:10;99449.88;;;11.43;77.63
42067;BME280;27734;47.028;28.820;2023-03-26T05:58:01;99459.66;;;11.52;77.63
42067;BME280;27734;47.028;28.820;2023-03-26T06:00:33;99457.08;;;11.55;77.77
42067;BME280;27734;47.028;28.820;2023-03-26T06:03:07;99469.45;;;11.64;78.01
42067;BME280;27734;47.028;28.820;2023-03-26T06:06:08;99469.45;;;11.64;77.56
42067;BME280;27734;47.028;28.820;2023-03-26T06:08:45;99476.50;;;11.66;77.46
42067;BME280;27734;47.028;28.820;2023-03-26T06:11:19;99475.68;;;11.69;77.60
42067;BME280;27734;47.028;28.820;2023-03-26T06:13:51;99474.80;;;11.70;78.13
42067;BME280;27734;47.028;28.820;2023-03-26T06:16:22;99473.05;;;11.69;77.86
42067;BME280;27734;47.028;28.820;2023-03-26T06:19:00;99473.92;;;11.69;77.70
42067;BME280;27734;47.028;28.820;2023-03-26T06:21:31;99475.72;;;11.72;77.71
42067;BME280;27734;47.028;28.820;2023-03-26T06:24:13;99479.31;;;11.79;77.90
42067;BME280;27734;47.028;28.820;2023-03-26T06:27:08;99485.44;;;11.79;78.36
42067;BME280;27734;47.028;28.820;2023-03-26T06:30:15;99478.48;;;11.81;77.75
42067;BME280;27734;47.028;28.820;2023-03-26T06:32:57;99484.75;;;11.91;77.83
42067;BME280;27734;47.028;28.820;2023-03-26T06:35:32;99471.70;;;11.96;77.54
42067;BME280;27734;47.028;28.820;2023-03-26T06:38:04;99474.35;;;11.97;77.29
42067;BME280;27734;47.028;28.820;2023-03-26T06:40:36;99480.59;;;12.05;77.08
42067;BME280;27734;47.028;28.820;2023-03-26T06:43:20;99492.05;;;12.09;76.76
42067;BME280;27734;47.028;28.820;2023-03-26T06:46:11;99494.66;;;12.08;76.89
42067;BME280;27734;47.028;28.820;2023-03-26T06:48:42;99495.55;;;12.10;76.49
42067;BME280;27734;47.028;28.820;2023-03-26T06:51:37;99504.38;;;12.15;76.38
42067;BME280;27734;47.028;28.820;2023-03-26T06:54:19;99507.15;;;12.26;76.38
42067;BME280;27734;47.028;28.820;2023-03-26T06:56:50;99502.84;;;12.32;76.06
42067;BME280;27734;47.028;28.820;2023-03-26T06:59:40;99500.34;;;12.43;75.62
42067;BME280;27734;47.028;28.820;2023-03-26T07:02:31;99503.83;;;12.39;74.56
42067;BME280;27734;47.028;28.820;2023-03-26T07:05:21;99508.92;;;12.27;74.40
42067;BME280;27734;47.028;28.820;2023-03-26T07:08:11;99510.59;;;12.21;74.45
42067;BME280;27734;47.028;28.820;2023-03-26T07:11:01;99510.63;;;12.25;73.93
42067;BME280;27734;47.028;28.820;2023-03-26T07:13:33;99515.94;;;12.28;73.22
42067;BME280;27734;47.028;28.820;2023-03-26T07:16:24;99518.60;;;12.31;73.28
42067;BME280;27734;47.028;28.820;2023-03-26T07:19:10;99512.43;;;12.27;72.90
42067;BME280;27734;47.028;28.820;2023-03-26T07:21:44;99514.19;;;12.27;72.17
42067;BME280;27734;47.028;28.820;2023-03-26T07:24:36;99520.37;;;12.32;72.57
42067;BME280;27734;47.028;28.820;2023-03-26T07:27:20;99523.92;;;12.35;72.18
42067;BME280;27734;47.028;28.820;2023-03-26T07:29:58;99525.78;;;12.43;71.99
42067;BME280;27734;47.028;28.820;2023-03-26T07:33:04;99551.20;;;12.40;71.26
42067;BME280;27734;47.028;28.820;2023-03-26T07:36:02;99533.53;;;12.32;71.40
42067;BME280;27734;47.028;28.820;2023-03-26T07:39:20;99536.13;;;12.29;70.69
42067;BME280;27734;47.028;28.820;2023-03-26T07:42:32;99531.72;;;12.28;70.82
42067;BME280;27734;47.028;28.820;2023-03-26T07:45:32;99538.75;;;12.29;70.52
42067;BME280;27734;47.028;28.820;2023-03-26T07:48:28;99538.95;;;12.44;70.26
42067;BME280;27734;47.028;28.820;2023-03-26T07:51:15;99540.89;;;12.57;70.36
42067;BME280;27734;47.028;28.820;2023-03-26T07:54:08;99555.05;;;12.69;69.81
42067;BME280;27734;47.028;28.820;2023-03-26T07:56:51;99540.11;;;12.68;69.85
42067;BME280;27734;47.028;28.820;2023-03-26T07:59:42;99534.94;;;12.75;69.38
42067;BME280;27734;47.028;28.820;2023-03-26T08:03:26;99553.39;;;12.77;68.86
42067;BME280;27734;47.028;28.820;2023-03-26T08:06:10;99542.00;;;12.78;68.75
42067;BME280;27734;47.028;28.820;2023-03-26T08:09:04;99543.67;;;12.73;67.75
42067;BME280;27734;47.028;28.820;2023-03-26T08:11:47;99546.38;;;12.79;68.16
42067;BME280;27734;47.028;28.820;2023-03-26T08:14:34;99539.42;;;12.83;67.88
42067;BME280;27734;47.028;28.820;2023-03-26T08:17:13;99541.19;;;12.85;67.99
42067;BME280;27734;47.028;28.820;2023-03-26T08:19:57;99543.03;;;12.92;68.32
42067;BME280;27734;47.028;28.820;2023-03-26T08:22:33;99544.06;;;13.08;68.77
42067;BME280;27734;47.028;28.820;2023-03-26T08:25:21;99543.37;;;13.26;67.82
42067;BME280;27734;47.028;28.820;2023-03-26T08:28:05;99551.41;;;13.37;67.43
42067;BME280;27734;47.028;28.820;2023-03-26T08:30:39;99540.94;;;13.43;67.65
42067;BME280;27734;47.028;28.820;2023-03-26T08:33:16;99541.83;;;13.47;67.03
42067;BME280;27734;47.028;28.820;2023-03-26T08:35:49;99533.13;;;13.56;66.71
42067;BME280;27734;47.028;28.820;2023-03-26T08:38:21;99542.02;;;13.69;66.18
42067;BME280;27734;47.028;28.820;2023-03-26T08:50:39;99516.66;;;13.88;65.57
42067;BME280;27734;47.028;28.820;2023-03-26T08:56:41;99523.58;;;13.72;65.24
42067;BME280;27734;47.028;28.820;2023-03-26T09:02:42;99515.77;;;13.86;65.48
42067;BME280;27734;47.028;28.820;2023-03-26T09:05:48;99516.70;;;13.95;66.33
42067;BME280;27734;47.028;28.820;2023-03-26T09:08:47;99508.06;;;14.19;65.66
42067;BME280;27734;47.028;28.820;2023-03-26T09:21:05;99512.72;;;14.79;64.81
42067;BME280;27734;47.028;28.820;2023-03-26T09:23:59;99511.85;;;14.94;64.23
42067;BME280;27734;47.028;28.820;2023-03-26T09:26:45;99510.12;;;14.98;63.50
42067;BME280;27734;47.028;28.820;2023-03-26T09:30:00;99520.66;;;14.88;62.00
42067;BME280;27734;47.028;28.820;2023-03-26T09:33:06;99515.38;;;14.85;61.70
42067;BME280;27734;47.028;28.820;2023-03-26T09:38:45;99518.84;;;14.70;61.91
42067;BME280;27734;47.028;28.820;2023-03-26T09:41:37;99520.63;;;14.74;61.24
42067;BME280;27734;47.028;28.820;2023-03-26T09:44:32;99518.85;;;14.75;60.92
42067;BME280;27734;47.028;28.820;2023-03-26T09:47:37;99518.91;;;14.95;61.64
42067;BME280;27734;47.028;28.820;2023-03-26T09:50:23;99522.44;;;15.00;61.21
42067;BME280;27734;47.028;28.820;2023-03-26T09:53:07;99528.60;;;14.93;61.40
42067;BME280;27734;47.028;28.820;2023-03-26T09:55:52;99521.55;;;14.94;60.73
42067;BME280;27734;47.028;28.820;2023-03-26T09:58:43;99530.35;;;14.97;59.91
42067;BME280;27734;47.028;28.820;2023-03-26T10:01:23;99516.23;;;14.83;60.01
42067;BME280;27734;47.028;28.820;2023-03-26T10:04:06;99517.09;;;14.66;60.28
42067;BME280;27734;47.028;28.820;2023-03-26T10:06:51;99530.27;;;14.62;60.18
42067;BME280;27734;47.028;28.820;2023-03-26T10:09:35;99529.28;;;14.50;59.43
42067;BME280;27734;47.028;28.820;2023-03-26T10:12:17;99529.22;;;14.36;59.50
42067;BME280;27734;47.028;28.820;2023-03-26T10:14:58;99520.42;;;14.33;60.39
42067;BME280;27734;47.028;28.820;2023-03-26T10:17:44;99516.02;;;14.33;60.52
42067;BME280;27734;47.028;28.820;2023-03-26T10:20:34;99523.93;;;14.33;58.77
42067;BME280;27734;47.028;28.820;2023-03-26T10:23:22;99522.16;;;14.26;59.42
42067;BME280;27734;47.028;28.820;2023-03-26T10:26:09;99518.61;;;14.18;58.59
42067;BME280;27734;47.028;28.820;2023-03-26T10:28:58;99509.73;;;14.07;58.58
42067;BME280;27734;47.028;28.820;2023-03-26T10:31:39;99504.42;;;14.02;58.79
42067;BME280;27734;47.028;28.820;2023-03-26T10:34:30;99507.03;;;13.97;58.05
42067;BME280;27734;47.028;28.820;2023-03-26T10:37:11;99508.73;;;13.86;58.32
42067;BME280;27734;47.028;28.820;2023-03-26T10:39:59;99511.36;;;13.84;57.62
42067;BME280;27734;47.028;28.820;2023-03-26T10:42:48;99506.92;;;13.80;58.07
42067;BME280;27734;47.028;28.820;2023-03-26T10:45:34;99510.44;;;13.78;58.03
42067;BME280;27734;47.028;28.820;2023-03-26T10:48:19;99514.77;;;13.71;57.84
42067;BME280;27734;47.028;28.820;2023-03-26T10:51:03;99509.49;;;13.66;57.76
42067;BME280;27734;47.028;28.820;2023-03-26T10:53:45;99508.61;;;13.69;57.40
42067;BME280;27734;47.028;28.820;2023-03-26T10:56:24;99511.31;;;13.78;57.41
42067;BME280;27734;47.028;28.820;2023-03-26T10:58:56;99510.50;;;13.86;58.28
42067;BME280;27734;47.028;28.820;2023-03-26T11:01:38;99508.77;;;13.91;58.08
42067;BME280;27734;47.028;28.820;2023-03-26T11:04:22;99507.02;;;13.94;58.19
42067;BME280;27734;47.028;28.820;2023-03-26T11:07:02;99506.17;;;13.98;57.36
42067;BME280;27734;47.028;28.820;2023-03-26T11:09:40;99510.56;;;13.96;57.51
42067;BME280;27734;47.028;28.820;2023-03-26T11:12:21;99512.29;;;13.94;57.96
42067;BME280;27734;47.028;28.820;2023-03-26T11:14:59;99502.67;;;13.99;57.26
42067;BME280;27734;47.028;28.820;2023-03-26T11:17:39;99506.24;;;14.11;58.06
42067;BME280;27734;47.028;28.820;2023-03-26T11:20:17;99508.93;;;14.20;56.83
42067;BME280;27734;47.028;28.820;2023-03-26T11:23:01;99512.45;;;14.22;57.33
42067;BME280;27734;47.028;28.820;2023-03-26T11:25:48;99510.70;;;14.19;56.64
42067;BME280;27734;47.028;28.820;2023-03-26T11:28:45;99508.88;;;14.11;56.45
42067;BME280;27734;47.028;28.820;2023-03-26T11:31:28;99504.47;;;14.10;57.03
42067;BME280;27734;47.028;28.820;2023-03-26T11:34:08;99507.11;;;14.11;57.18
42067;BME280;27734;47.028;28.820;2023-03-26T11:36:45;99496.58;;;14.14;56.43
42067;BME280;27734;47.028;28.820;2023-03-26T11:39:22;99498.36;;;14.17;56.55
42067;BME280;27734;47.028;28.820;2023-03-26T11:42:02;99497.52;;;14.21;57.05
42067;BME280;27734;47.028;28.820;2023-03-26T11:44:48;99498.41;;;14.26;56.30
42067;BME280;27734;47.028;28.820;2023-03-26T11:47:23;99487.86;;;14.26;57.05
42067;BME280;27734;47.028;28.820;2023-03-26T11:49:58;99486.97;;;14.30;56.33
42067;BME280;27734;47.028;28.820;2023-03-26T11:52:30;99479.10;;;14.41;56.61
42067;BME280;27734;47.028;28.820;2023-03-26T11:55:01;99475.64;;;14.56;57.16
42067;BME280;27734;47.028;28.820;2023-03-26T11:57:35;99474.84;;;14.68;56.29
42067;BME280;27734;47.028;28.820;2023-03-26T12:00:11;99481.02;;;14.76;56.48
42067;BME280;27734;47.028;28.820;2023-03-26T12:02:47;99475.75;;;14.81;56.54
42067;BME280;27734;47.028;28.820;2023-03-26T12:05:21;99473.11;;;14.81;55.12
42067;BME280;27734;47.028;28.820;2023-03-26T12:07:57;99473.11;;;14.81;56.15
42067;BME280;27734;47.028;28.820;2023-03-26T12:10:31;99465.19;;;14.84;55.24
42067;BME280;27734;47.028;28.820;2023-03-26T12:13:13;99468.70;;;14.86;55.66
42067;BME280;27734;47.028;28.820;2023-03-26T12:15:55;99466.93;;;14.85;55.13
42067;BME280;27734;47.028;28.820;2023-03-26T12:18:28;99455.50;;;14.87;55.64
42067;BME280;27734;47.028;28.820;2023-03-26T12:21:06;99448.45;;;14.86;55.70
42067;BME280;27734;47.028;28.820;2023-03-26T12:26:40;99439.67;;;15.00;55.63
42067;BME280;27734;47.028;28.820;2023-03-26T12:29:15;99447.60;;;15.07;54.52
42067;BME280;27734;47.028;28.820;2023-03-26T12:31:53;99453.76;;;15.16;54.72
42067;BME280;27734;47.028;28.820;2023-03-26T12:34:29;99447.61;;;15.21;54.15
42067;BME280;27734;47.028;28.820;2023-03-26T12:37:04;99442.32;;;15.20;55.04
42067;BME280;27734;47.028;28.820;2023-03-26T12:39:38;99445.84;;;15.28;54.89
42067;BME280;27734;47.028;28.820;2023-03-26T12:42:25;99437.91;;;15.26;54.57
42067;BME280;27734;47.028;28.820;2023-03-26T12:44:58;99430.88;;;15.25;54.62
42067;BME280;27734;47.028;28.820;2023-03-26T12:47:32;99427.34;;;15.26;54.47
42067;BME280;27734;47.028;28.820;2023-03-26T12:50:03;99418.53;;;15.31;54.70
42067;BME280;27734;47.028;28.820;2023-03-26T12:52:57;99429.10;;;15.40;54.38
42067;BME280;27734;47.028;28.820;2023-03-26T12:55:41;99426.45;;;15.46;54.34
42067;BME280;27734;47.028;28.820;2023-03-26T12:58:33;99430.84;;;15.44;53.70
42067;BME280;27734;47.028;28.820;2023-03-26T13:01:13;99431.75;;;15.38;53.00
42067;BME280;27734;47.028;28.820;2023-03-26T13:04:15;99424.69;;;15.37;54.45
42067;BME280;27734;47.028;28.820;2023-03-26T13:06:53;99420.27;;;15.42;53.67
42067;BME280;27734;47.028;28.820;2023-03-26T13:09:44;99410.59;;;15.44;54.00
42067;BME280;27734;47.028;28.820;2023-03-26T13:12:27;99423.81;;;15.41;53.03
42067;BME280;27734;47.028;28.820;2023-03-26T13:15:22;99414.11;;;15.39;54.05
42067;BME280;27734;47.028;28.820;2023-03-26T13:18:03;99405.30;;;15.48;53.72
42067;BME280;27734;47.028;28.820;2023-03-26T13:20:49;99402.66;;;15.48;53.95
42067;BME280;27734;47.028;28.820;2023-03-26T13:23:32;99399.10;;;15.52;53.55
42067;BME280;27734;47.028;28.820;2023-03-26T13:26:13;99396.47;;;15.45;51.91
42067;BME280;27734;47.028;28.820;2023-03-26T13:28:53;99392.09;;;15.41;52.87
42067;BME280;27734;47.028;28.820;2023-03-26T13:31:33;99395.61;;;15.42;52.40
42067;BME280;27734;47.028;28.820;2023-03-26T13:34:12;99396.47;;;15.44;51.90
42067;BME280;27734;47.028;28.820;2023-03-26T13:36:55;99398.26;;;15.37;52.61
42067;BME280;27734;47.028;28.820;2023-03-26T13:39:35;99396.48;;;15.33;51.97
42067;BME280;27734;47.028;28.820;2023-03-26T13:42:23;99396.49;;;15.30;51.73
42067;BME280;27734;47.028;28.820;2023-03-26T13:45:07;99391.20;;;15.30;51.64
42067;BME280;27734;47.028;28.820;2023-03-26T13:47:45;99395.61;;;15.37;52.33
42067;BME280;27734;47.028;28.820;2023-03-26T13:50:22;99395.61;;;15.42;51.25
42067;BME280;27734;47.028;28.820;2023-03-26T13:52:57;99395.61;;;15.42;50.78
42067;BME280;27734;47.028;28.820;2023-03-26T13:55:32;99388.54;;;15.45;50.26
42067;BME280;27734;47.028;28.820;2023-03-26T13:58:09;99391.19;;;15.42;50.24
42067;BME280;27734;47.028;28.820;2023-03-26T14:00:50;99396.48;;;15.36;49.17
42067;BME280;27734;47.028;28.820;2023-03-26T14:03:28;99391.20;;;15.30;49.68
42067;BME280;27734;47.028;28.820;2023-03-26T14:06:09;99394.75;;;15.26;49.41
42067;BME280;27734;47.028;28.820;2023-03-26T14:08:46;99396.53;;;15.24;49.22
42067;BME280;27734;47.028;28.820;2023-03-26T14:11:24;99393.89;;;15.25;50.62
42067;BME280;27734;47.028;28.820;2023-03-26T14:14:06;99394.75;;;15.31;50.08
42067;BME280;27734;47.028;28.820;2023-03-26T14:16:45;99392.10;;;15.35;50.31
42067;BME280;27734;47.028;28.820;2023-03-26T14:22:20;99389.44;;;15.51;49.54
42067;BME280;27734;47.028;28.820;2023-03-26T14:25:05;99387.65;;;15.56;49.36
42067;BME280;27734;47.028;28.820;2023-03-26T14:28:04;99394.70;;;15.57;49.89
42067;BME280;27734;47.028;28.820;2023-03-26T14:33:49;99399.09;;;15.53;48.87
42067;BME280;27734;47.028;28.820;2023-03-26T14:36:35;99392.95;;;15.50;49.28
42067;BME280;27734;47.028;28.820;2023-03-26T14:39:38;99392.95;;;15.46;48.39